Flight Track Log - Related Links

Times and Time Zones

All times are in EDT time to prevent confusion due to time zone crossing. See the N37TD flight status page for this flight to view local times or setup timezone preferences in your user account.

Time Position Orientation Groundspeed Altitude Reporting Facility
EDT Latitude Longitude Course Direction KTS MPH feet Rate Location/Type
Fri 10:58:50 AM 42.7667 -87.8000 20° North 153 176 1,000  Level KMKE
Fri 10:59:26 AM 42.8000 -87.7833 20° North 168 193 2,400 2,353 Climbing KMKE
Fri 11:00:32 AM 42.8367 -87.7322 46° Northeast 189 217 5,000 2,203 Climbing Chicago Center
Fri 11:01:34 AM 42.8919 -87.7319 360° North 204 235 7,100 1,839 Climbing Chicago Center
Fri 11:02:36 AM 42.9414 -87.7769 326° Northwest 211 243 8,800 1,500 Climbing Chicago Center
Fri 11:03:38 AM 42.9864 -87.8392 315° West 225 259 10,200 1,210 Climbing Chicago Center
Fri 11:04:40 AM 43.0342 -87.9014 316° Northwest 235 270 11,300 1,113 Climbing Chicago Center
Fri 11:05:42 AM 43.0978 -87.9711 321° Northwest 248 285 12,500 1,113 Climbing Chicago Center
Fri 11:06:44 AM 43.1494 -88.0347 318° Northwest 249 287 13,600 1,065 Climbing Chicago Center
Fri 11:07:46 AM 43.2000 -88.1003 317° Northwest 251 289 14,700 1,065 Climbing Chicago Center
Fri 11:08:48 AM 43.2539 -88.1586 322° Northwest 246 283 15,800 1,113 Climbing Chicago Center
Fri 11:09:50 AM 43.3075 -88.2139 323° Northwest 242 278 17,000 1,065 Climbing Chicago Center
Fri 11:10:52 AM 43.3697 -88.2772 324° Northwest 240 276 18,000 968 Climbing Chicago Center
Fri 11:11:54 AM 43.4200 -88.3389 318° Northwest 242 278 19,000 919 Climbing Chicago Center
Fri 11:12:56 AM 43.4717 -88.3942 322° Northwest 239 275 19,900 484 Climbing Chicago Center
Fri 11:13:58 AM 43.5247 -88.4581 319° Northwest 258 297 20,000 48 Climbing Chicago Center
Fri 11:15:00 AM 43.5892 -88.5422 317° Northwest 275 316 20,000  Level Chicago Center
Fri 11:16:02 AM 43.6489 -88.6094 321° Northwest 277 319 20,000  Level Chicago Center
Fri 11:17:04 AM 43.7097 -88.6708 324° Northwest 272 313 20,000  Level Chicago Center
Fri 11:18:06 AM 43.7681 -88.7403 319° Northwest 276 318 20,000  Level Chicago Center
Fri 11:19:08 AM 43.8228 -88.8119 317° Northwest 272 313 20,000  Level Chicago Center
Fri 11:20:10 AM 43.8822 -88.8778 321° Northwest 273 314 20,000  Level Chicago Center
Fri 11:21:12 AM 43.9542 -88.9469 325° Northwest 270 311 20,000  Level Chicago Center
Fri 11:22:14 AM 44.0119 -89.0150 320° Northwest 272 313 20,000  Level Chicago Center
Fri 11:23:16 AM 44.0694 -89.0828 320° Northwest 272 313 20,000  Level Chicago Center
Fri 11:24:18 AM 44.1319 -89.1447 325° Northwest 275 316 20,000  Level Chicago Center
Fri 11:25:19 AM 44.1906 -89.2111 321° Northwest 273 314 20,000  Level Chicago Center
Fri 11:26:21 AM 44.2569 -89.2914 319° Northwest 271 312 20,000  Level Chicago Center
Fri 11:27:23 AM 44.3147 -89.3642 318° Northwest 278 320 20,000  Level Chicago Center
Fri 11:28:32 AM 44.3853 -89.4406 322° Northwest 277 319 20,000  Level Minneapolis Center
Fri 11:29:34 AM 44.4436 -89.5078 321° Northwest 273 314 20,000  Level Minneapolis Center
Fri 11:30:36 AM 44.5006 -89.5811 317° Northwest 276 318 20,000  Level Minneapolis Center
Fri 11:31:38 AM 44.5617 -89.6456 323° Northwest 275 316 20,000  Level Minneapolis Center
Fri 11:32:40 AM 44.6181 -89.7153 319° Northwest 271 312 20,000  Level Minneapolis Center
Fri 11:33:42 AM 44.6764 -89.7867 319° Northwest 277 319 20,000  Level Minneapolis Center
Fri 11:34:44 AM 44.7436 -89.8669 320° Northwest 272 313 20,000  Level Minneapolis Center
Fri 11:35:58 AM 44.7983 -89.9419 316° Northwest 274 315 20,000  Level Minneapolis Center
Fri 11:37:01 AM 44.8672 -90.0192 322° Northwest 271 312 20,000  Level Minneapolis Center
Fri 11:38:03 AM 44.9253 -90.0900 319° Northwest 275 316 20,000  Level Minneapolis Center
Fri 11:39:05 AM 44.9825 -90.1614 319° Northwest 274 315 20,000  Level Minneapolis Center
Fri 11:40:07 AM 45.0550 -90.2400 323° Northwest 273 314 20,000  Level Minneapolis Center
Fri 11:41:09 AM 45.1125 -90.3119 319° Northwest 275 316 20,000  Level Minneapolis Center
Fri 11:42:11 AM 45.1694 -90.3817 319° Northwest 272 313 20,000 -194 Level Minneapolis Center
Fri 11:43:13 AM 45.2289 -90.4503 321° Northwest 274 315 19,600 -919 Descending Minneapolis Center
Fri 11:44:15 AM 45.2911 -90.5294 318° Northwest 294 338 18,100 -1,355 Descending Minneapolis Center
Fri 11:45:17 AM 45.3517 -90.6183 314° West 308 354 16,800 -1,548 Descending Minneapolis Center
Fri 11:46:19 AM 45.4328 -90.7169 320° Northwest 316 364 14,900 -1,584 Descending Minneapolis Center
Fri 11:47:22 AM 45.5017 -90.7856 325° Northwest 306 352 13,500 -1,440 Descending Minneapolis Center
Fri 11:48:24 AM 45.5689 -90.8503 326° Northwest 297 342 11,900 -1,500 Descending Minneapolis Center
Fri 11:49:26 AM 45.6256 -90.9258 317° Northwest 286 329 10,400 -1,500 Descending Minneapolis Center
Fri 11:50:28 AM 45.6811 -91.0069 314° West 285 328 8,800 -1,161 Descending Minneapolis Center
Fri 11:51:30 AM 45.7394 -91.0761 320° Northwest 279 321 8,000 -435 Descending Minneapolis Center
Fri 11:52:32 AM 45.7953 -91.1458 319° Northwest 270 311 7,900 -871 Descending Minneapolis Center
Fri 11:53:34 AM 45.8583 -91.2372 315° West 269 310 6,200 -968 Descending Minneapolis Center
Fri 11:54:36 AM 45.9089 -91.3083 316° Northwest 269 310 5,900 -290 Descending Minneapolis Center
Fri 11:56:00 AM 45.9836 -91.3962 319° Northwest  Level FlightAware Approximate
Fri 12:03:00 PM 46.0167 -91.4333 325° Northwest  Level FlightAware Approximate
Fri 12:04:00 PM 46.0253 -91.4443 325° Northwest  Level Estimated

Login

Don't have an account? Register now (free) for customized features, flight alerts, and more!